sensor_id;sensor_type;location;lat;lon;timestamp;P1;durP1;ratioP1;P2;durP2;ratioP2
72286;SDS011;60221;45.696;16.076;2024-01-07T00:00:38;2.00;;;0.10;;
72286;SDS011;60221;45.696;16.076;2024-01-07T00:03:05;1.30;;;0.10;;
72286;SDS011;60221;45.696;16.076;2024-01-07T00:05:32;1.30;;;0.00;;
72286;SDS011;60221;45.696;16.076;2024-01-07T00:08:00;1.10;;;0.00;;
72286;SDS011;60221;45.696;16.076;2024-01-07T00:10:27;1.70;;;0.10;;
72286;SDS011;60221;45.696;16.076;2024-01-07T00:12:53;2.20;;;0.10;;
72286;SDS011;60221;45.696;16.076;2024-01-07T00:15:20;1.20;;;0.00;;
72286;SDS011;60221;45.696;16.076;2024-01-07T00:17:47;1.50;;;0.10;;
72286;SDS011;60221;45.696;16.076;2024-01-07T00:20:14;1.20;;;0.10;;
72286;SDS011;60221;45.696;16.076;2024-01-07T00:22:41;1.70;;;0.00;;
72286;SDS011;60221;45.696;16.076;2024-01-07T00:25:08;1.70;;;0.10;;
72286;SDS011;60221;45.696;16.076;2024-01-07T00:27:35;2.70;;;0.10;;
72286;SDS011;60221;45.696;16.076;2024-01-07T00:30:02;1.60;;;0.00;;
72286;SDS011;60221;45.696;16.076;2024-01-07T00:32:29;1.50;;;0.10;;
72286;SDS011;60221;45.696;16.076;2024-01-07T00:34:55;1.50;;;0.00;;
72286;SDS011;60221;45.696;16.076;2024-01-07T00:37:22;1.20;;;0.00;;
72286;SDS011;60221;45.696;16.076;2024-01-07T00:39:50;1.90;;;0.00;;
72286;SDS011;60221;45.696;16.076;2024-01-07T00:42:17;2.10;;;0.10;;
72286;SDS011;60221;45.696;16.076;2024-01-07T00:44:43;1.60;;;0.10;;
72286;SDS011;60221;45.696;16.076;2024-01-07T00:47:10;1.80;;;0.10;;
72286;SDS011;60221;45.696;16.076;2024-01-07T00:49:37;2.50;;;0.00;;
72286;SDS011;60221;45.696;16.076;2024-01-07T00:52:06;1.10;;;0.00;;
72286;SDS011;60221;45.696;16.076;2024-01-07T00:54:33;1.70;;;0.10;;
72286;SDS011;60221;45.696;16.076;2024-01-07T00:57:00;1.40;;;0.10;;
72286;SDS011;60221;45.696;16.076;2024-01-07T00:59:28;1.90;;;0.10;;
72286;SDS011;60221;45.696;16.076;2024-01-07T01:01:54;0.60;;;0.00;;
72286;SDS011;60221;45.696;16.076;2024-01-07T01:04:22;0.60;;;0.00;;
72286;SDS011;60221;45.696;16.076;2024-01-07T01:06:49;1.20;;;0.00;;
72286;SDS011;60221;45.696;16.076;2024-01-07T01:09:16;1.60;;;0.00;;
72286;SDS011;60221;45.696;16.076;2024-01-07T01:11:42;1.50;;;0.10;;
72286;SDS011;60221;45.696;16.076;2024-01-07T01:14:09;1.50;;;0.00;;
72286;SDS011;60221;45.696;16.076;2024-01-07T01:16:36;1.10;;;0.00;;
72286;SDS011;60221;45.696;16.076;2024-01-07T01:19:03;1.00;;;0.00;;
72286;SDS011;60221;45.696;16.076;2024-01-07T01:21:30;1.30;;;0.00;;
72286;SDS011;60221;45.696;16.076;2024-01-07T01:23:57;1.10;;;0.00;;
72286;SDS011;60221;45.696;16.076;2024-01-07T01:26:24;1.70;;;0.00;;
72286;SDS011;60221;45.696;16.076;2024-01-07T01:28:51;1.70;;;0.10;;
72286;SDS011;60221;45.696;16.076;2024-01-07T01:31:18;1.90;;;0.10;;
72286;SDS011;60221;45.696;16.076;2024-01-07T01:33:45;1.60;;;0.00;;
72286;SDS011;60221;45.696;16.076;2024-01-07T01:36:12;1.20;;;0.00;;
72286;SDS011;60221;45.696;16.076;2024-01-07T01:38:39;1.40;;;0.10;;
72286;SDS011;60221;45.696;16.076;2024-01-07T01:41:06;0.90;;;0.00;;
72286;SDS011;60221;45.696;16.076;2024-01-07T01:43:33;1.40;;;0.10;;
72286;SDS011;60221;45.696;16.076;2024-01-07T01:46:01;1.80;;;0.00;;
72286;SDS011;60221;45.696;16.076;2024-01-07T01:48:28;1.70;;;0.00;;
72286;SDS011;60221;45.696;16.076;2024-01-07T01:50:55;1.20;;;0.00;;
72286;SDS011;60221;45.696;16.076;2024-01-07T01:53:25;1.30;;;0.00;;
72286;SDS011;60221;45.696;16.076;2024-01-07T01:55:53;1.10;;;0.00;;
72286;SDS011;60221;45.696;16.076;2024-01-07T01:58:20;2.20;;;0.10;;
72286;SDS011;60221;45.696;16.076;2024-01-07T02:00:48;1.10;;;0.00;;
72286;SDS011;60221;45.696;16.076;2024-01-07T02:03:17;1.40;;;0.00;;
72286;SDS011;60221;45.696;16.076;2024-01-07T02:05:45;1.40;;;0.00;;
72286;SDS011;60221;45.696;16.076;2024-01-07T02:08:12;1.10;;;0.00;;
72286;SDS011;60221;45.696;16.076;2024-01-07T02:10:38;1.10;;;0.00;;
72286;SDS011;60221;45.696;16.076;2024-01-07T02:13:08;2.20;;;0.30;;
72286;SDS011;60221;45.696;16.076;2024-01-07T02:15:35;1.70;;;0.00;;
72286;SDS011;60221;45.696;16.076;2024-01-07T02:18:02;1.30;;;0.00;;
72286;SDS011;60221;45.696;16.076;2024-01-07T02:20:29;1.80;;;0.00;;
72286;SDS011;60221;45.696;16.076;2024-01-07T02:22:56;1.10;;;0.00;;
72286;SDS011;60221;45.696;16.076;2024-01-07T02:25:26;1.10;;;0.00;;
72286;SDS011;60221;45.696;16.076;2024-01-07T02:27:53;1.10;;;0.00;;
72286;SDS011;60221;45.696;16.076;2024-01-07T02:30:19;0.90;;;0.00;;
72286;SDS011;60221;45.696;16.076;2024-01-07T02:32:46;2.00;;;0.10;;
72286;SDS011;60221;45.696;16.076;2024-01-07T02:35:13;1.50;;;0.00;;
72286;SDS011;60221;45.696;16.076;2024-01-07T02:37:40;1.40;;;0.00;;
72286;SDS011;60221;45.696;16.076;2024-01-07T02:40:07;1.70;;;0.10;;
72286;SDS011;60221;45.696;16.076;2024-01-07T02:42:34;1.60;;;0.00;;
72286;SDS011;60221;45.696;16.076;2024-01-07T02:45:01;1.60;;;0.00;;
72286;SDS011;60221;45.696;16.076;2024-01-07T02:47:28;1.80;;;0.10;;
72286;SDS011;60221;45.696;16.076;2024-01-07T02:49:55;2.00;;;0.10;;
72286;SDS011;60221;45.696;16.076;2024-01-07T02:52:22;1.60;;;0.10;;
72286;SDS011;60221;45.696;16.076;2024-01-07T02:54:49;1.20;;;0.00;;
72286;SDS011;60221;45.696;16.076;2024-01-07T02:57:16;1.20;;;0.00;;
72286;SDS011;60221;45.696;16.076;2024-01-07T02:59:42;3.00;;;0.10;;
72286;SDS011;60221;45.696;16.076;2024-01-07T03:02:09;1.60;;;0.00;;
72286;SDS011;60221;45.696;16.076;2024-01-07T03:04:36;2.20;;;0.00;;
72286;SDS011;60221;45.696;16.076;2024-01-07T03:07:03;1.20;;;0.10;;
72286;SDS011;60221;45.696;16.076;2024-01-07T03:09:30;1.70;;;0.00;;
72286;SDS011;60221;45.696;16.076;2024-01-07T03:11:57;1.40;;;0.00;;
72286;SDS011;60221;45.696;16.076;2024-01-07T03:14:23;0.90;;;0.00;;
72286;SDS011;60221;45.696;16.076;2024-01-07T03:16:50;2.20;;;0.00;;
72286;SDS011;60221;45.696;16.076;2024-01-07T03:19:17;1.90;;;0.10;;
72286;SDS011;60221;45.696;16.076;2024-01-07T03:21:44;2.10;;;0.10;;
72286;SDS011;60221;45.696;16.076;2024-01-07T03:24:11;2.10;;;0.00;;
72286;SDS011;60221;45.696;16.076;2024-01-07T03:26:38;1.10;;;0.00;;
72286;SDS011;60221;45.696;16.076;2024-01-07T03:29:05;1.30;;;0.00;;
72286;SDS011;60221;45.696;16.076;2024-01-07T03:31:31;1.50;;;0.00;;
72286;SDS011;60221;45.696;16.076;2024-01-07T03:33:59;1.20;;;0.10;;
72286;SDS011;60221;45.696;16.076;2024-01-07T03:36:26;1.20;;;0.00;;
72286;SDS011;60221;45.696;16.076;2024-01-07T03:38:53;1.40;;;0.00;;
72286;SDS011;60221;45.696;16.076;2024-01-07T03:41:20;0.90;;;0.00;;
72286;SDS011;60221;45.696;16.076;2024-01-07T03:43:47;1.20;;;0.00;;
72286;SDS011;60221;45.696;16.076;2024-01-07T03:46:15;1.80;;;0.10;;
72286;SDS011;60221;45.696;16.076;2024-01-07T03:48:42;1.10;;;0.10;;
72286;SDS011;60221;45.696;16.076;2024-01-07T03:51:10;1.30;;;0.00;;
72286;SDS011;60221;45.696;16.076;2024-01-07T03:53:37;1.10;;;0.00;;
72286;SDS011;60221;45.696;16.076;2024-01-07T03:56:03;1.70;;;0.00;;
72286;SDS011;60221;45.696;16.076;2024-01-07T03:58:30;2.40;;;0.00;;
72286;SDS011;60221;45.696;16.076;2024-01-07T04:00:57;1.70;;;0.10;;
72286;SDS011;60221;45.696;16.076;2024-01-07T04:03:24;1.80;;;0.10;;
72286;SDS011;60221;45.696;16.076;2024-01-07T04:05:51;1.60;;;0.10;;
72286;SDS011;60221;45.696;16.076;2024-01-07T04:08:18;2.00;;;0.10;;
72286;SDS011;60221;45.696;16.076;2024-01-07T04:10:45;1.40;;;0.10;;
72286;SDS011;60221;45.696;16.076;2024-01-07T04:13:12;2.10;;;0.10;;
72286;SDS011;60221;45.696;16.076;2024-01-07T04:15:39;1.60;;;0.00;;
72286;SDS011;60221;45.696;16.076;2024-01-07T04:18:06;1.10;;;0.00;;
72286;SDS011;60221;45.696;16.076;2024-01-07T04:20:33;2.70;;;0.10;;
72286;SDS011;60221;45.696;16.076;2024-01-07T04:22:59;3.20;;;0.10;;
72286;SDS011;60221;45.696;16.076;2024-01-07T04:25:26;1.60;;;0.00;;
72286;SDS011;60221;45.696;16.076;2024-01-07T04:27:53;1.40;;;0.10;;
72286;SDS011;60221;45.696;16.076;2024-01-07T04:30:20;1.80;;;0.10;;
72286;SDS011;60221;45.696;16.076;2024-01-07T04:32:47;1.30;;;0.10;;
72286;SDS011;60221;45.696;16.076;2024-01-07T04:35:14;1.70;;;0.10;;
72286;SDS011;60221;45.696;16.076;2024-01-07T04:37:41;2.00;;;0.00;;
72286;SDS011;60221;45.696;16.076;2024-01-07T04:40:08;1.40;;;0.10;;
72286;SDS011;60221;45.696;16.076;2024-01-07T04:42:35;1.60;;;0.00;;
72286;SDS011;60221;45.696;16.076;2024-01-07T04:45:02;0.90;;;0.00;;
72286;SDS011;60221;45.696;16.076;2024-01-07T04:47:30;1.80;;;0.10;;
72286;SDS011;60221;45.696;16.076;2024-01-07T04:49:57;2.00;;;0.10;;
72286;SDS011;60221;45.696;16.076;2024-01-07T04:52:24;1.70;;;0.00;;
72286;SDS011;60221;45.696;16.076;2024-01-07T04:54:52;2.50;;;0.10;;
72286;SDS011;60221;45.696;16.076;2024-01-07T04:57:19;2.10;;;0.20;;
72286;SDS011;60221;45.696;16.076;2024-01-07T04:59:46;2.50;;;0.00;;
72286;SDS011;60221;45.696;16.076;2024-01-07T05:02:13;1.40;;;0.10;;
72286;SDS011;60221;45.696;16.076;2024-01-07T05:04:40;2.20;;;0.10;;
72286;SDS011;60221;45.696;16.076;2024-01-07T05:07:07;2.30;;;0.10;;
72286;SDS011;60221;45.696;16.076;2024-01-07T05:09:34;2.10;;;0.10;;
72286;SDS011;60221;45.696;16.076;2024-01-07T05:12:01;1.50;;;0.00;;
72286;SDS011;60221;45.696;16.076;2024-01-07T05:14:28;2.30;;;0.10;;
72286;SDS011;60221;45.696;16.076;2024-01-07T05:16:55;2.00;;;0.10;;
72286;SDS011;60221;45.696;16.076;2024-01-07T05:19:22;2.30;;;0.10;;
72286;SDS011;60221;45.696;16.076;2024-01-07T05:21:49;1.50;;;0.00;;
72286;SDS011;60221;45.696;16.076;2024-01-07T05:24:16;1.40;;;0.00;;
72286;SDS011;60221;45.696;16.076;2024-01-07T05:26:44;2.00;;;0.20;;
72286;SDS011;60221;45.696;16.076;2024-01-07T05:29:11;2.90;;;0.10;;
72286;SDS011;60221;45.696;16.076;2024-01-07T05:31:42;2.60;;;0.10;;
72286;SDS011;60221;45.696;16.076;2024-01-07T05:34:09;1.60;;;0.10;;
72286;SDS011;60221;45.696;16.076;2024-01-07T05:36:36;1.90;;;0.10;;
72286;SDS011;60221;45.696;16.076;2024-01-07T05:39:03;2.10;;;0.10;;
72286;SDS011;60221;45.696;16.076;2024-01-07T05:41:30;3.10;;;0.20;;
72286;SDS011;60221;45.696;16.076;2024-01-07T05:43:57;1.50;;;0.10;;
72286;SDS011;60221;45.696;16.076;2024-01-07T05:46:24;1.20;;;0.10;;
72286;SDS011;60221;45.696;16.076;2024-01-07T05:48:51;2.20;;;0.00;;
72286;SDS011;60221;45.696;16.076;2024-01-07T05:51:18;1.60;;;0.10;;
72286;SDS011;60221;45.696;16.076;2024-01-07T05:53:45;2.40;;;0.20;;
72286;SDS011;60221;45.696;16.076;2024-01-07T05:56:12;1.60;;;0.10;;
72286;SDS011;60221;45.696;16.076;2024-01-07T05:58:39;1.80;;;0.10;;
72286;SDS011;60221;45.696;16.076;2024-01-07T06:01:06;2.60;;;0.10;;
72286;SDS011;60221;45.696;16.076;2024-01-07T06:03:35;2.00;;;0.10;;
72286;SDS011;60221;45.696;16.076;2024-01-07T06:06:02;2.40;;;0.20;;
72286;SDS011;60221;45.696;16.076;2024-01-07T06:08:29;2.10;;;0.10;;
72286;SDS011;60221;45.696;16.076;2024-01-07T06:10:56;2.20;;;0.10;;
72286;SDS011;60221;45.696;16.076;2024-01-07T06:13:23;1.80;;;0.10;;
72286;SDS011;60221;45.696;16.076;2024-01-07T06:15:50;3.00;;;0.20;;
72286;SDS011;60221;45.696;16.076;2024-01-07T06:18:17;1.50;;;0.10;;
72286;SDS011;60221;45.696;16.076;2024-01-07T06:20:44;2.20;;;0.10;;
72286;SDS011;60221;45.696;16.076;2024-01-07T06:23:11;1.90;;;0.10;;
72286;SDS011;60221;45.696;16.076;2024-01-07T06:25:38;2.10;;;0.10;;
72286;SDS011;60221;45.696;16.076;2024-01-07T06:28:06;1.30;;;0.10;;
72286;SDS011;60221;45.696;16.076;2024-01-07T06:30:33;2.90;;;0.10;;
72286;SDS011;60221;45.696;16.076;2024-01-07T06:33:00;2.60;;;0.10;;
72286;SDS011;60221;45.696;16.076;2024-01-07T06:35:27;4.00;;;0.20;;
72286;SDS011;60221;45.696;16.076;2024-01-07T06:37:54;3.00;;;0.30;;
72286;SDS011;60221;45.696;16.076;2024-01-07T06:40:21;2.10;;;0.10;;
72286;SDS011;60221;45.696;16.076;2024-01-07T06:42:49;3.80;;;0.10;;
72286;SDS011;60221;45.696;16.076;2024-01-07T06:45:16;1.90;;;0.00;;
72286;SDS011;60221;45.696;16.076;2024-01-07T06:47:43;2.00;;;0.10;;
72286;SDS011;60221;45.696;16.076;2024-01-07T06:50:11;2.70;;;0.20;;
72286;SDS011;60221;45.696;16.076;2024-01-07T06:52:38;2.80;;;0.10;;
72286;SDS011;60221;45.696;16.076;2024-01-07T06:55:05;3.40;;;0.20;;
72286;SDS011;60221;45.696;16.076;2024-01-07T06:57:32;2.20;;;0.10;;
72286;SDS011;60221;45.696;16.076;2024-01-07T06:59:59;2.40;;;0.10;;
72286;SDS011;60221;45.696;16.076;2024-01-07T07:02:26;2.10;;;0.10;;
72286;SDS011;60221;45.696;16.076;2024-01-07T07:04:53;3.30;;;0.20;;
72286;SDS011;60221;45.696;16.076;2024-01-07T07:07:20;2.80;;;0.10;;
72286;SDS011;60221;45.696;16.076;2024-01-07T07:09:47;3.70;;;0.10;;
72286;SDS011;60221;45.696;16.076;2024-01-07T07:12:14;3.20;;;0.20;;
72286;SDS011;60221;45.696;16.076;2024-01-07T07:14:40;2.20;;;0.10;;
72286;SDS011;60221;45.696;16.076;2024-01-07T07:17:07;1.40;;;0.10;;
72286;SDS011;60221;45.696;16.076;2024-01-07T07:19:34;3.10;;;0.20;;
72286;SDS011;60221;45.696;16.076;2024-01-07T07:22:01;2.20;;;0.10;;
72286;SDS011;60221;45.696;16.076;2024-01-07T07:24:28;2.70;;;0.20;;
72286;SDS011;60221;45.696;16.076;2024-01-07T07:26:55;3.30;;;0.10;;
72286;SDS011;60221;45.696;16.076;2024-01-07T07:29:22;2.80;;;0.20;;
72286;SDS011;60221;45.696;16.076;2024-01-07T07:31:49;3.40;;;0.30;;
72286;SDS011;60221;45.696;16.076;2024-01-07T07:34:16;2.90;;;0.20;;
72286;SDS011;60221;45.696;16.076;2024-01-07T07:36:43;3.00;;;0.20;;
72286;SDS011;60221;45.696;16.076;2024-01-07T07:39:11;2.80;;;0.20;;
72286;SDS011;60221;45.696;16.076;2024-01-07T07:41:40;2.90;;;0.30;;
72286;SDS011;60221;45.696;16.076;2024-01-07T07:44:07;1.90;;;0.10;;
72286;SDS011;60221;45.696;16.076;2024-01-07T07:46:34;3.10;;;0.30;;
72286;SDS011;60221;45.696;16.076;2024-01-07T07:49:02;2.80;;;0.30;;
72286;SDS011;60221;45.696;16.076;2024-01-07T07:51:31;3.30;;;0.20;;
72286;SDS011;60221;45.696;16.076;2024-01-07T07:53:58;2.30;;;0.20;;
72286;SDS011;60221;45.696;16.076;2024-01-07T07:56:25;5.10;;;0.20;;
72286;SDS011;60221;45.696;16.076;2024-01-07T07:58:52;3.40;;;0.20;;
72286;SDS011;60221;45.696;16.076;2024-01-07T08:01:18;2.50;;;0.30;;
72286;SDS011;60221;45.696;16.076;2024-01-07T08:03:45;2.20;;;0.20;;
72286;SDS011;60221;45.696;16.076;2024-01-07T08:06:12;4.80;;;0.30;;
72286;SDS011;60221;45.696;16.076;2024-01-07T08:08:39;4.00;;;0.40;;
72286;SDS011;60221;45.696;16.076;2024-01-07T08:11:06;3.20;;;0.40;;
72286;SDS011;60221;45.696;16.076;2024-01-07T08:13:35;3.10;;;0.30;;
72286;SDS011;60221;45.696;16.076;2024-01-07T08:16:03;3.20;;;0.30;;
72286;SDS011;60221;45.696;16.076;2024-01-07T08:18:30;15.70;;;4.00;;
72286;SDS011;60221;45.696;16.076;2024-01-07T08:20:58;8.10;;;2.00;;
72286;SDS011;60221;45.696;16.076;2024-01-07T08:23:25;5.10;;;0.80;;
72286;SDS011;60221;45.696;16.076;2024-01-07T08:25:52;4.10;;;0.90;;
72286;SDS011;60221;45.696;16.076;2024-01-07T08:28:19;5.50;;;1.30;;
72286;SDS011;60221;45.696;16.076;2024-01-07T08:30:47;4.60;;;1.20;;
72286;SDS011;60221;45.696;16.076;2024-01-07T08:33:14;4.50;;;0.80;;
72286;SDS011;60221;45.696;16.076;2024-01-07T08:35:41;3.70;;;0.90;;
72286;SDS011;60221;45.696;16.076;2024-01-07T08:38:08;5.30;;;1.10;;
72286;SDS011;60221;45.696;16.076;2024-01-07T08:40:35;6.60;;;1.80;;
72286;SDS011;60221;45.696;16.076;2024-01-07T08:43:02;5.50;;;1.10;;
72286;SDS011;60221;45.696;16.076;2024-01-07T08:45:29;4.30;;;0.80;;
72286;SDS011;60221;45.696;16.076;2024-01-07T08:47:56;3.40;;;0.60;;
72286;SDS011;60221;45.696;16.076;2024-01-07T08:50:23;5.80;;;0.90;;
72286;SDS011;60221;45.696;16.076;2024-01-07T08:52:49;5.20;;;1.30;;
72286;SDS011;60221;45.696;16.076;2024-01-07T08:55:16;5.00;;;1.20;;
72286;SDS011;60221;45.696;16.076;2024-01-07T08:57:43;4.70;;;1.00;;
72286;SDS011;60221;45.696;16.076;2024-01-07T09:00:12;3.60;;;0.70;;
72286;SDS011;60221;45.696;16.076;2024-01-07T09:02:38;3.70;;;0.70;;
72286;SDS011;60221;45.696;16.076;2024-01-07T09:05:09;4.30;;;0.70;;
72286;SDS011;60221;45.696;16.076;2024-01-07T09:07:36;3.90;;;0.60;;
72286;SDS011;60221;45.696;16.076;2024-01-07T09:10:03;6.90;;;1.50;;
72286;SDS011;60221;45.696;16.076;2024-01-07T09:12:35;4.00;;;0.80;;
72286;SDS011;60221;45.696;16.076;2024-01-07T09:15:03;5.00;;;0.80;;
72286;SDS011;60221;45.696;16.076;2024-01-07T09:17:31;5.40;;;1.20;;
72286;SDS011;60221;45.696;16.076;2024-01-07T09:19:58;4.70;;;1.00;;
72286;SDS011;60221;45.696;16.076;2024-01-07T09:22:25;4.20;;;1.10;;
72286;SDS011;60221;45.696;16.076;2024-01-07T09:24:51;5.10;;;1.00;;
72286;SDS011;60221;45.696;16.076;2024-01-07T09:27:19;5.80;;;1.50;;
72286;SDS011;60221;45.696;16.076;2024-01-07T09:29:46;4.70;;;1.10;;
72286;SDS011;60221;45.696;16.076;2024-01-07T09:32:13;7.60;;;1.20;;
72286;SDS011;60221;45.696;16.076;2024-01-07T09:34:40;5.90;;;1.30;;
72286;SDS011;60221;45.696;16.076;2024-01-07T09:37:07;5.70;;;1.30;;
72286;SDS011;60221;45.696;16.076;2024-01-07T09:39:39;6.00;;;1.20;;
72286;SDS011;60221;45.696;16.076;2024-01-07T09:42:12;5.40;;;1.40;;
72286;SDS011;60221;45.696;16.076;2024-01-07T09:44:39;5.80;;;1.70;;
72286;SDS011;60221;45.696;16.076;2024-01-07T09:47:07;5.50;;;1.30;;
72286;SDS011;60221;45.696;16.076;2024-01-07T09:49:42;4.60;;;0.90;;
72286;SDS011;60221;45.696;16.076;2024-01-07T09:52:25;5.60;;;1.00;;
72286;SDS011;60221;45.696;16.076;2024-01-07T09:55:12;5.30;;;0.90;;
72286;SDS011;60221;45.696;16.076;2024-01-07T09:57:56;4.20;;;0.90;;
72286;SDS011;60221;45.696;16.076;2024-01-07T10:00:30;5.60;;;1.20;;
72286;SDS011;60221;45.696;16.076;2024-01-07T10:03:08;5.80;;;1.90;;
72286;SDS011;60221;45.696;16.076;2024-01-07T10:05:42;5.50;;;1.40;;
72286;SDS011;60221;45.696;16.076;2024-01-07T10:08:20;4.20;;;1.10;;
72286;SDS011;60221;45.696;16.076;2024-01-07T10:11:03;5.00;;;0.50;;
72286;SDS011;60221;45.696;16.076;2024-01-07T10:13:38;5.40;;;1.10;;
72286;SDS011;60221;45.696;16.076;2024-01-07T10:16:22;4.70;;;1.20;;
72286;SDS011;60221;45.696;16.076;2024-01-07T10:18:59;5.00;;;1.50;;
72286;SDS011;60221;45.696;16.076;2024-01-07T10:21:41;5.40;;;1.20;;
72286;SDS011;60221;45.696;16.076;2024-01-07T10:24:29;5.30;;;1.30;;
72286;SDS011;60221;45.696;16.076;2024-01-07T10:27:13;4.30;;;0.90;;
72286;SDS011;60221;45.696;16.076;2024-01-07T10:29:58;5.30;;;1.40;;
72286;SDS011;60221;45.696;16.076;2024-01-07T10:32:42;5.00;;;1.10;;
72286;SDS011;60221;45.696;16.076;2024-01-07T10:35:33;6.10;;;1.50;;
72286;SDS011;60221;45.696;16.076;2024-01-07T10:38:12;5.50;;;1.40;;
72286;SDS011;60221;45.696;16.076;2024-01-07T10:40:59;5.40;;;1.20;;
72286;SDS011;60221;45.696;16.076;2024-01-07T10:43:38;6.20;;;1.20;;
72286;SDS011;60221;45.696;16.076;2024-01-07T10:46:23;4.30;;;0.90;;
72286;SDS011;60221;45.696;16.076;2024-01-07T10:49:11;5.40;;;1.30;;
72286;SDS011;60221;45.696;16.076;2024-01-07T10:54:37;8.60;;;1.80;;
72286;SDS011;60221;45.696;16.076;2024-01-07T10:57:34;5.80;;;1.50;;
72286;SDS011;60221;45.696;16.076;2024-01-07T11:00:19;5.10;;;1.20;;
72286;SDS011;60221;45.696;16.076;2024-01-07T11:03:10;5.60;;;1.70;;
72286;SDS011;60221;45.696;16.076;2024-01-07T11:06:07;4.70;;;1.40;;
72286;SDS011;60221;45.696;16.076;2024-01-07T11:08:54;5.10;;;1.50;;
72286;SDS011;60221;45.696;16.076;2024-01-07T11:11:39;7.10;;;1.70;;
72286;SDS011;60221;45.696;16.076;2024-01-07T11:20:20;5.40;;;1.40;;
72286;SDS011;60221;45.696;16.076;2024-01-07T11:26:08;5.40;;;1.60;;
72286;SDS011;60221;45.696;16.076;2024-01-07T11:28:54;5.00;;;1.40;;
72286;SDS011;60221;45.696;16.076;2024-01-07T11:34:42;7.00;;;1.40;;
72286;SDS011;60221;45.696;16.076;2024-01-07T11:37:30;6.00;;;1.10;;
72286;SDS011;60221;45.696;16.076;2024-01-07T11:40:07;5.70;;;1.80;;
72286;SDS011;60221;45.696;16.076;2024-01-07T11:42:44;5.70;;;2.00;;
72286;SDS011;60221;45.696;16.076;2024-01-07T11:45:30;6.20;;;2.20;;
72286;SDS011;60221;45.696;16.076;2024-01-07T11:48:15;6.50;;;2.10;;
72286;SDS011;60221;45.696;16.076;2024-01-07T11:51:01;6.70;;;2.00;;
72286;SDS011;60221;45.696;16.076;2024-01-07T11:53:38;6.60;;;1.60;;
72286;SDS011;60221;45.696;16.076;2024-01-07T11:56:14;7.70;;;1.90;;
72286;SDS011;60221;45.696;16.076;2024-01-07T11:59:00;5.10;;;1.80;;
72286;SDS011;60221;45.696;16.076;2024-01-07T12:01:37;6.10;;;2.10;;
72286;SDS011;60221;45.696;16.076;2024-01-07T12:04:21;5.70;;;1.70;;
72286;SDS011;60221;45.696;16.076;2024-01-07T12:07:00;6.00;;;1.70;;
72286;SDS011;60221;45.696;16.076;2024-01-07T12:09:41;4.80;;;1.40;;
72286;SDS011;60221;45.696;16.076;2024-01-07T12:12:27;6.20;;;1.60;;
72286;SDS011;60221;45.696;16.076;2024-01-07T12:15:06;6.50;;;1.90;;
72286;SDS011;60221;45.696;16.076;2024-01-07T12:17:57;6.30;;;1.90;;
72286;SDS011;60221;45.696;16.076;2024-01-07T12:20:54;5.70;;;1.80;;
72286;SDS011;60221;45.696;16.076;2024-01-07T12:23:39;10.40;;;2.40;;
72286;SDS011;60221;45.696;16.076;2024-01-07T12:26:13;5.20;;;1.70;;
72286;SDS011;60221;45.696;16.076;2024-01-07T12:28:44;15.10;;;3.10;;
72286;SDS011;60221;45.696;16.076;2024-01-07T12:31:23;12.80;;;2.40;;
72286;SDS011;60221;45.696;16.076;2024-01-07T12:33:58;13.00;;;3.10;;
72286;SDS011;60221;45.696;16.076;2024-01-07T12:36:26;10.70;;;3.20;;
72286;SDS011;60221;45.696;16.076;2024-01-07T12:38:53;5.00;;;1.40;;
72286;SDS011;60221;45.696;16.076;2024-01-07T12:41:22;6.80;;;2.10;;
72286;SDS011;60221;45.696;16.076;2024-01-07T12:43:49;5.60;;;1.80;;
72286;SDS011;60221;45.696;16.076;2024-01-07T12:46:17;5.70;;;1.40;;
72286;SDS011;60221;45.696;16.076;2024-01-07T12:48:44;6.00;;;1.90;;
72286;SDS011;60221;45.696;16.076;2024-01-07T12:51:11;4.40;;;1.10;;
72286;SDS011;60221;45.696;16.076;2024-01-07T12:53:38;4.80;;;1.50;;
72286;SDS011;60221;45.696;16.076;2024-01-07T12:56:04;5.00;;;0.90;;
72286;SDS011;60221;45.696;16.076;2024-01-07T12:58:31;5.50;;;1.20;;
72286;SDS011;60221;45.696;16.076;2024-01-07T13:00:58;5.50;;;1.40;;
72286;SDS011;60221;45.696;16.076;2024-01-07T13:03:25;5.10;;;0.90;;
72286;SDS011;60221;45.696;16.076;2024-01-07T13:05:52;5.30;;;1.60;;
72286;SDS011;60221;45.696;16.076;2024-01-07T13:08:19;4.30;;;1.00;;
72286;SDS011;60221;45.696;16.076;2024-01-07T13:10:49;5.90;;;1.50;;
72286;SDS011;60221;45.696;16.076;2024-01-07T13:13:15;3.80;;;1.10;;
72286;SDS011;60221;45.696;16.076;2024-01-07T13:15:44;4.40;;;1.20;;
72286;SDS011;60221;45.696;16.076;2024-01-07T13:18:11;5.40;;;1.50;;
72286;SDS011;60221;45.696;16.076;2024-01-07T13:20:39;5.90;;;1.30;;
72286;SDS011;60221;45.696;16.076;2024-01-07T13:23:06;5.20;;;1.10;;
72286;SDS011;60221;45.696;16.076;2024-01-07T13:25:33;4.60;;;1.00;;
72286;SDS011;60221;45.696;16.076;2024-01-07T13:28:00;6.50;;;1.20;;
72286;SDS011;60221;45.696;16.076;2024-01-07T13:30:27;5.50;;;1.30;;
72286;SDS011;60221;45.696;16.076;2024-01-07T13:32:53;5.00;;;1.00;;
72286;SDS011;60221;45.696;16.076;2024-01-07T13:35:24;5.90;;;1.40;;
72286;SDS011;60221;45.696;16.076;2024-01-07T13:37:52;7.20;;;1.60;;
72286;SDS011;60221;45.696;16.076;2024-01-07T13:40:18;4.20;;;0.90;;
72286;SDS011;60221;45.696;16.076;2024-01-07T13:42:46;5.70;;;1.20;;
72286;SDS011;60221;45.696;16.076;2024-01-07T13:45:17;5.70;;;1.30;;
72286;SDS011;60221;45.696;16.076;2024-01-07T13:47:47;6.10;;;1.20;;
72286;SDS011;60221;45.696;16.076;2024-01-07T13:50:14;5.00;;;1.40;;
72286;SDS011;60221;45.696;16.076;2024-01-07T13:52:41;5.90;;;1.30;;
72286;SDS011;60221;45.696;16.076;2024-01-07T13:55:08;5.20;;;0.80;;
72286;SDS011;60221;45.696;16.076;2024-01-07T13:57:38;5.50;;;1.10;;
72286;SDS011;60221;45.696;16.076;2024-01-07T14:00:05;4.70;;;1.20;;
72286;SDS011;60221;45.696;16.076;2024-01-07T14:02:36;6.10;;;1.10;;
72286;SDS011;60221;45.696;16.076;2024-01-07T14:05:04;6.50;;;1.60;;
72286;SDS011;60221;45.696;16.076;2024-01-07T14:07:33;6.70;;;1.50;;
72286;SDS011;60221;45.696;16.076;2024-01-07T14:10:00;5.10;;;1.50;;
72286;SDS011;60221;45.696;16.076;2024-01-07T14:12:30;6.90;;;1.40;;
72286;SDS011;60221;45.696;16.076;2024-01-07T14:14:58;7.00;;;2.40;;
72286;SDS011;60221;45.696;16.076;2024-01-07T14:17:26;4.80;;;1.10;;
72286;SDS011;60221;45.696;16.076;2024-01-07T14:19:53;6.30;;;1.80;;
72286;SDS011;60221;45.696;16.076;2024-01-07T14:22:20;7.00;;;1.90;;
72286;SDS011;60221;45.696;16.076;2024-01-07T14:24:48;7.10;;;1.60;;
72286;SDS011;60221;45.696;16.076;2024-01-07T14:27:15;7.80;;;2.10;;
72286;SDS011;60221;45.696;16.076;2024-01-07T14:29:42;6.00;;;1.20;;
72286;SDS011;60221;45.696;16.076;2024-01-07T14:32:10;5.50;;;1.00;;
72286;SDS011;60221;45.696;16.076;2024-01-07T14:34:38;7.20;;;2.00;;
72286;SDS011;60221;45.696;16.076;2024-01-07T14:37:05;13.80;;;4.00;;
72286;SDS011;60221;45.696;16.076;2024-01-07T14:39:32;19.40;;;5.00;;
72286;SDS011;60221;45.696;16.076;2024-01-07T14:41:59;24.60;;;5.70;;
72286;SDS011;60221;45.696;16.076;2024-01-07T14:44:26;26.50;;;6.00;;
72286;SDS011;60221;45.696;16.076;2024-01-07T14:47:10;26.30;;;5.90;;
72286;SDS011;60221;45.696;16.076;2024-01-07T14:49:36;18.80;;;6.40;;
72286;SDS011;60221;45.696;16.076;2024-01-07T14:52:04;9.90;;;2.40;;
72286;SDS011;60221;45.696;16.076;2024-01-07T14:54:55;6.40;;;1.70;;
72286;SDS011;60221;45.696;16.076;2024-01-07T14:57:47;6.30;;;2.10;;
72286;SDS011;60221;45.696;16.076;2024-01-07T15:00:19;4.50;;;1.20;;
72286;SDS011;60221;45.696;16.076;2024-01-07T15:02:53;6.00;;;1.40;;